Riverton, Wyoming
Current Conditions -  °F | °C
As of 11:53 AM on Thursday 27 Nov 2014 (Local Time) from KRIW Reporting Station
Clear Clear  
Wind Chill: 51°   Ceiling: Unl
Heat Index: 51°   Visibility: 10mi
Dew Point: 25°   Wind: 5mph
Humidity: 36%   Direction: NA
Pressure: 30.1"   Gusts: NA
Location:  43.02°N, 108.38°W
Report Text: KRIW 271853Z AUTO VRB04KT 10SM CLR 11/M04 A3010 RMK AO2 SLP184 T01061039
Loading
Personal Weather Stations






























Interactive Weather Map New forecast layout! Learn more

10-Day Weather Forecast

Advertisements
Track Severe Weather on mobile